createdAt,value
2024-04-25T07:02:05.920Z,99.90
2024-04-25T07:04:33.165Z,99.90
2024-04-25T07:07:00.374Z,99.90
2024-04-25T07:09:27.566Z,99.90
2024-04-25T07:11:54.952Z,99.90
2024-04-25T07:14:24.001Z,99.90
2024-04-25T07:16:51.438Z,99.90
2024-04-25T07:19:19.418Z,99.90
2024-04-25T07:21:46.733Z,99.90
2024-04-25T07:24:13.954Z,99.90
2024-04-25T07:26:41.097Z,99.90
2024-04-25T07:29:08.353Z,99.90
2024-04-25T07:31:35.577Z,99.80
2024-04-25T07:34:02.777Z,98.70
2024-04-25T07:36:31.044Z,97.90
2024-04-25T07:38:58.376Z,97.50
2024-04-25T07:41:27.172Z,97.60
2024-04-25T07:43:54.263Z,98.30
2024-04-25T07:46:22.066Z,96.90
2024-04-25T07:48:50.617Z,93.90
2024-04-25T07:51:18.135Z,95.10
2024-04-25T07:53:46.565Z,97.40
2024-04-25T07:56:14.008Z,97.30
2024-04-25T07:58:42.873Z,95.60
2024-04-25T08:01:10.111Z,96.40
2024-04-25T08:03:37.410Z,97.60
2024-04-25T08:06:05.189Z,97.60
2024-04-25T08:08:32.538Z,97.50
2024-04-25T08:11:01.500Z,95.10
2024-04-25T08:13:29.304Z,96.90
2024-04-25T08:15:56.502Z,97.00
2024-04-25T08:18:23.842Z,98.90
2024-04-25T08:20:51.039Z,99.10
2024-04-25T08:23:18.282Z,98.60
2024-04-25T08:25:45.562Z,99.40
2024-04-25T08:28:14.141Z,99.00
2024-04-25T08:30:41.326Z,98.00
2024-04-25T08:33:10.085Z,98.90
2024-04-25T08:35:37.370Z,99.50
2024-04-25T08:38:04.779Z,99.90
2024-04-25T08:40:34.906Z,99.30
2024-04-25T08:43:04.030Z,99.60
2024-04-25T08:45:33.750Z,99.30
2024-04-25T08:48:02.601Z,99.90
2024-04-25T08:50:34.048Z,99.90
2024-04-25T08:53:03.542Z,99.90
2024-04-25T08:55:31.509Z,99.90
2024-04-25T08:58:00.437Z,99.90
2024-04-25T09:00:28.203Z,99.90
2024-04-25T09:02:58.736Z,99.90
2024-04-25T09:05:27.653Z,99.90
2024-04-25T09:07:55.297Z,99.90
2024-04-25T09:10:23.179Z,99.90
2024-04-25T09:12:50.448Z,99.90
2024-04-25T09:15:17.852Z,99.90
2024-04-25T09:17:45.033Z,99.90
2024-04-25T09:20:12.832Z,99.90
2024-04-25T09:22:40.479Z,99.90
2024-04-25T09:25:07.971Z,99.90
2024-04-25T09:27:35.184Z,99.90
2024-04-25T09:30:02.739Z,99.90
2024-04-25T09:32:31.136Z,99.90
2024-04-25T09:35:02.498Z,99.90
2024-04-25T09:37:33.122Z,99.90
2024-04-25T09:40:05.595Z,99.90
2024-04-25T09:42:35.552Z,99.90
2024-04-25T09:45:09.137Z,99.90
2024-04-25T09:47:44.346Z,99.90
2024-04-25T09:50:18.056Z,99.90
2024-04-25T09:53:05.247Z,99.90
2024-04-25T09:55:39.951Z,99.90
2024-04-25T09:58:13.353Z,99.90
2024-04-25T10:00:42.272Z,99.90
2024-04-25T10:03:11.511Z,99.90
2024-04-25T10:05:39.445Z,99.90
2024-04-25T10:08:07.546Z,99.90
2024-04-25T10:10:35.089Z,99.90
2024-04-25T10:13:02.302Z,99.90
2024-04-25T10:15:30.867Z,99.90
2024-04-25T10:17:59.195Z,99.90
2024-04-25T10:20:27.018Z,99.90
2024-04-25T10:23:01.379Z,99.90
2024-04-25T10:25:29.437Z,99.90
2024-04-25T10:28:05.048Z,99.90
2024-04-25T10:30:34.415Z,99.90
2024-04-25T10:33:02.756Z,99.90
2024-04-25T10:35:38.409Z,99.90
2024-04-25T10:38:06.736Z,99.90
